createdAt,value
2023-01-15T00:01:55.518Z,99419.84
2023-01-15T00:04:40.362Z,99414.47
2023-01-15T00:07:25.356Z,99417.03
2023-01-15T00:10:10.185Z,99411.66
2023-01-15T00:12:55.387Z,99408.44
2023-01-15T00:15:40.133Z,99417.50
2023-01-15T00:18:24.998Z,99415.75
2023-01-15T00:21:12.610Z,99408.94
2023-01-15T00:24:15.835Z,99417.19
2023-01-15T00:27:19.489Z,99411.97
2023-01-15T00:30:06.295Z,99405.94
2023-01-15T00:32:51.425Z,99401.53
2023-01-15T00:35:36.257Z,99399.63
2023-01-15T00:38:21.346Z,99396.13
2023-01-15T00:41:06.162Z,99402.81
2023-01-15T00:43:52.539Z,99401.06
2023-01-15T00:46:37.490Z,99402.50
2023-01-15T00:49:22.373Z,99385.41
2023-01-15T00:52:07.954Z,99384.47
2023-01-15T00:54:53.602Z,99381.13
2023-01-15T00:57:38.565Z,99378.75
2023-01-15T01:00:23.308Z,99393.00
2023-01-15T01:03:08.441Z,99388.72
2023-01-15T01:05:53.600Z,99384.47
2023-01-15T01:08:38.376Z,99380.19
2023-01-15T01:11:26.180Z,99386.19
2023-01-15T01:14:12.064Z,99382.84
2023-01-15T01:16:57.183Z,99382.41
2023-01-15T01:19:42.259Z,99377.47
2023-01-15T01:22:27.506Z,99382.53
2023-01-15T01:25:12.558Z,99378.56
2023-01-15T01:27:57.162Z,99379.50
2023-01-15T01:30:42.237Z,99375.41
2023-01-15T01:33:27.455Z,99387.09
2023-01-15T01:36:12.659Z,99383.63
2023-01-15T01:38:58.298Z,99370.03
2023-01-15T01:41:45.210Z,99374.94
2023-01-15T01:44:33.032Z,99371.47
2023-01-15T01:47:22.445Z,99370.66
2023-01-15T01:50:11.395Z,99365.09
2023-01-15T01:53:00.750Z,99370.16
2023-01-15T01:55:46.329Z,99372.41
2023-01-15T01:58:33.383Z,99366.72
2023-01-15T02:01:19.544Z,99363.06
2023-01-15T02:04:10.359Z,99359.72
2023-01-15T02:06:56.370Z,99353.72
2023-01-15T02:09:41.517Z,99353.56
2023-01-15T02:12:36.676Z,99354.06
2023-01-15T02:15:28.023Z,99353.09
2023-01-15T02:18:25.933Z,99358.94
2023-01-15T02:21:42.568Z,99368.28
2023-01-15T02:24:36.485Z,99364.19
2023-01-15T02:27:23.603Z,99364.31
2023-01-15T02:30:15.216Z,99350.09
2023-01-15T02:33:26.008Z,99350.88
2023-01-15T02:36:15.261Z,99346.75
2023-01-15T02:39:05.734Z,99336.44
2023-01-15T02:41:53.644Z,99335.81
2023-01-15T02:44:47.254Z,99334.09
2023-01-15T02:47:37.563Z,99326.50
2023-01-15T02:50:29.295Z,99324.75
2023-01-15T02:53:21.013Z,99319.69
2023-01-15T02:56:11.510Z,99321.41
2023-01-15T02:59:12.374Z,99331.38
2023-01-15T03:03:15.092Z,99328.84
2023-01-15T03:06:03.703Z,99329.66
2023-01-15T03:08:50.122Z,99322.34
2023-01-15T03:11:44.045Z,99327.59
2023-01-15T03:14:55.415Z,99322.53
2023-01-15T03:17:52.190Z,99323.47
2023-01-15T03:20:41.884Z,99322.53
2023-01-15T03:23:30.629Z,99317.47
2023-01-15T03:26:15.582Z,99318.88
2023-01-15T03:29:05.552Z,99317.16
2023-01-15T03:31:51.287Z,99306.22
2023-01-15T03:34:43.169Z,99302.09
2023-01-15T03:37:29.527Z,99288.78
2023-01-15T03:40:14.359Z,99291.31
2023-01-15T03:43:23.464Z,99287.84
2023-01-15T03:46:26.043Z,99294.78
2023-01-15T03:49:31.194Z,99294.03
2023-01-15T03:52:27.965Z,99279.59
2023-01-15T03:55:18.755Z,99279.59
2023-01-15T03:58:19.606Z,99275.50
2023-01-15T04:01:10.394Z,99272.78
2023-01-15T04:03:57.819Z,99266.94
2023-01-15T04:06:45.003Z,99261.41
2023-01-15T04:09:31.746Z,99260.13
2023-01-15T04:12:17.941Z,99260.13
2023-01-15T04:15:06.264Z,99266.78
2023-01-15T04:17:51.614Z,99263.47
2023-01-15T04:20:36.357Z,99255.84
2023-01-15T04:23:22.671Z,99253.31
2023-01-15T04:26:07.236Z,99260.63
2023-01-15T04:28:52.628Z,99252.22
2023-01-15T04:31:37.056Z,99257.91
2023-01-15T04:34:21.593Z,99251.09
2023-01-15T04:37:06.871Z,99258.72
2023-01-15T04:39:51.385Z,99263.47
2023-01-15T04:42:54.720Z,99258.41
2023-01-15T04:45:39.647Z,99261.72
2023-01-15T04:48:25.686Z,99255.69
2023-01-15T04:51:10.676Z,99254.75
2023-01-15T04:53:55.753Z,99258.72
2023-01-15T04:56:49.810Z,99247.63
2023-01-15T04:59:34.994Z,99258.72
2023-01-15T05:02:19.828Z,99266.78
2023-01-15T05:05:05.126Z,99263.47
2023-01-15T05:07:49.649Z,99253.00
2023-01-15T05:10:34.390Z,99253.81
2023-01-15T05:13:19.208Z,99243.81
2023-01-15T05:16:30.584Z,99239.38
2023-01-15T05:19:15.496Z,99237.00
2023-01-15T05:22:00.305Z,99245.84
2023-01-15T05:24:45.243Z,99245.09
2023-01-15T05:27:31.128Z,99243.97
2023-01-15T05:30:16.853Z,99247.28
2023-01-15T05:33:01.996Z,99243.81
2023-01-15T05:35:46.808Z,99249.66
2023-01-15T05:38:32.508Z,99243.63
2023-01-15T05:41:37.550Z,99247.75
2023-01-15T05:44:23.750Z,99242.38
2023-01-15T05:47:10.162Z,99241.59
2023-01-15T05:49:54.737Z,99239.66
2023-01-15T05:52:39.555Z,99242.06
2023-01-15T05:55:24.431Z,99228.59
2023-01-15T05:58:09.002Z,99225.88
2023-01-15T06:00:54.480Z,99234.13
2023-01-15T06:03:41.225Z,99239.22
2023-01-15T06:06:25.911Z,99233.97
2023-01-15T06:09:10.698Z,99229.69
2023-01-15T06:11:56.030Z,99226.19
2023-01-15T06:14:40.642Z,99225.41
2023-01-15T06:17:25.641Z,99222.72
2023-01-15T06:20:11.315Z,99222.72
2023-01-15T06:22:56.205Z,99228.25
2023-01-15T06:25:41.280Z,99230.47
2023-01-15T06:28:26.899Z,99218.41
2023-01-15T06:31:14.427Z,99218.25
2023-01-15T06:33:59.957Z,99213.78
2023-01-15T06:36:44.633Z,99204.13
2023-01-15T06:39:29.549Z,99201.09
2023-01-15T06:42:33.287Z,99203.16
2023-01-15T06:45:36.620Z,99192.03
2023-01-15T06:48:22.037Z,99196.47
2023-01-15T06:51:07.302Z,99197.25
2023-01-15T06:53:51.967Z,99196.13
2023-01-15T06:56:36.791Z,99202.44
2023-01-15T06:59:21.324Z,99203.88
2023-01-15T07:02:06.547Z,99199.44
2023-01-15T07:04:51.458Z,99203.69
2023-01-15T07:07:36.384Z,99199.22
2023-01-15T07:10:21.183Z,99199.06
2023-01-15T07:13:06.877Z,99200.75
2023-01-15T07:15:51.391Z,99199.81
2023-01-15T07:18:36.470Z,99195.34
2023-01-15T07:21:22.450Z,99189.34
2023-01-15T07:24:08.409Z,99197.41
2023-01-15T07:26:53.280Z,99186.91
2023-01-15T07:29:37.979Z,99188.31
2023-01-15T07:32:26.920Z,99184.66
2023-01-15T07:35:11.753Z,99173.72
2023-01-15T07:37:56.803Z,99166.41
2023-01-15T07:40:41.807Z,99165.59
2023-01-15T07:43:44.956Z,99151.97
2023-01-15T07:46:48.400Z,99156.06
2023-01-15T07:49:45.467Z,99164.81
2023-01-15T07:52:30.574Z,99164.66
2023-01-15T07:55:15.770Z,99170.34
2023-01-15T07:58:00.322Z,99165.09
2023-01-15T08:00:45.173Z,99152.25
2023-01-15T08:03:29.765Z,99170.03
2023-01-15T08:06:14.589Z,99158.72
2023-01-15T08:08:59.596Z,99161.28
2023-01-15T08:12:02.969Z,99166.34
2023-01-15T08:15:06.234Z,99168.09
2023-01-15T08:17:51.607Z,99170.13
2023-01-15T08:20:36.997Z,99160.75
2023-01-15T08:23:22.448Z,99157.28
2023-01-15T08:26:07.215Z,99150.25
2023-01-15T08:28:51.851Z,99150.88
2023-01-15T08:31:36.482Z,99140.53
2023-01-15T08:34:21.872Z,99129.72
2023-01-15T08:37:06.552Z,99120.00
2023-01-15T08:39:52.590Z,99139.00
2023-01-15T08:42:37.948Z,99128.06
2023-01-15T08:45:23.060Z,99119.16
2023-01-15T08:48:07.831Z,99114.88
2023-01-15T08:50:53.071Z,99115.41
2023-01-15T08:53:38.265Z,99116.19
2023-01-15T08:56:23.116Z,99097.97
2023-01-15T08:59:08.069Z,99091.13
2023-01-15T09:01:53.248Z,99093.69
2023-01-15T09:04:38.459Z,99084.91
2023-01-15T09:07:23.112Z,99071.88
2023-01-15T09:10:08.408Z,99070.47
2023-01-15T09:12:53.390Z,99057.78
2023-01-15T09:15:37.962Z,99064.25
2023-01-15T09:18:23.418Z,99069.34
2023-01-15T09:21:08.582Z,99060.13
2023-01-15T09:23:53.610Z,99065.66
2023-01-15T09:26:39.796Z,99065.66
2023-01-15T09:29:24.819Z,99074.69
2023-01-15T09:32:10.023Z,99090.00
2023-01-15T09:34:54.342Z,99077.31
2023-01-15T09:37:39.432Z,99072.75
2023-01-15T09:40:43.136Z,99090.19
2023-01-15T09:43:50.181Z,99078.78
2023-01-15T09:46:54.333Z,99082.56
2023-01-15T09:49:54.653Z,99067.84
2023-01-15T09:52:42.069Z,99069.44
2023-01-15T09:55:31.338Z,99056.19
2023-01-15T09:58:23.824Z,99060.03
2023-01-15T10:01:16.928Z,99066.91
2023-01-15T10:04:21.545Z,99048.91
2023-01-15T10:07:24.797Z,99048.22
2023-01-15T10:10:18.271Z,99042.16
2023-01-15T10:13:14.494Z,99046.91
2023-01-15T10:16:00.004Z,99062.75
2023-01-15T10:18:46.142Z,99054.63
2023-01-15T10:22:05.794Z,99049.78
2023-01-15T10:24:57.106Z,99048.66
2023-01-15T10:27:48.365Z,99044.34
2023-01-15T10:30:45.974Z,99042.16
2023-01-15T10:33:59.757Z,99032.94
2023-01-15T10:37:25.741Z,99039.28
2023-01-15T10:40:29.001Z,99029.03
2023-01-15T10:43:31.114Z,99020.34
2023-01-15T10:46:23.783Z,99013.34
2023-01-15T10:49:17.202Z,99009.22
2023-01-15T10:52:26.011Z,99003.53
2023-01-15T10:55:20.490Z,98999.44
2023-01-15T10:58:14.293Z,98994.94
2023-01-15T11:01:26.725Z,98993.59
2023-01-15T11:04:13.536Z,98989.41
2023-01-15T11:07:00.473Z,98982.94
2023-01-15T11:09:45.812Z,98968.03
2023-01-15T11:12:49.196Z,98968.84
2023-01-15T11:15:53.065Z,98960.22
2023-01-15T11:19:01.586Z,98947.94
2023-01-15T11:21:47.787Z,98940.94
2023-01-15T11:24:32.853Z,98935.31
2023-01-15T11:27:24.149Z,98929.06
2023-01-15T11:30:36.896Z,98935.25
2023-01-15T11:33:27.431Z,98926.28
2023-01-15T11:36:24.439Z,98923.38
2023-01-15T11:39:27.936Z,98927.69
2023-01-15T11:42:35.831Z,98925.31
2023-01-15T11:45:41.747Z,98918.00
2023-01-15T11:48:44.809Z,98920.25
2023-01-15T11:51:32.458Z,98915.03
2023-01-15T11:54:17.393Z,98914.47
2023-01-15T11:57:02.174Z,98905.81
2023-01-15T11:59:50.687Z,98906.16
2023-01-15T12:02:44.937Z,98902.59
2023-01-15T12:05:33.829Z,98897.09
2023-01-15T12:08:48.905Z,98901.56
2023-01-15T12:12:02.126Z,98903.84
2023-01-15T12:14:59.137Z,98892.91
2023-01-15T12:17:55.628Z,98893.50
2023-01-15T12:21:01.849Z,98893.84
2023-01-15T12:24:02.389Z,98888.97
2023-01-15T12:27:13.377Z,98877.56
2023-01-15T12:30:01.495Z,98878.31
2023-01-15T12:33:15.144Z,98865.44
2023-01-15T12:36:10.650Z,98864.66
2023-01-15T12:39:01.456Z,98857.03
2023-01-15T12:42:12.407Z,98863.66
2023-01-15T12:45:26.424Z,98863.84
2023-01-15T12:48:29.634Z,98859.66
2023-01-15T12:51:25.774Z,98865.88
2023-01-15T12:54:14.965Z,98854.34
2023-01-15T12:57:21.486Z,98863.44
2023-01-15T13:00:09.155Z,98853.81
2023-01-15T13:02:53.746Z,98849.50
2023-01-15T13:05:47.223Z,98850.66
2023-01-15T13:08:44.741Z,98849.88
2023-01-15T13:11:29.438Z,98853.13
2023-01-15T13:14:16.290Z,98859.16
2023-01-15T13:17:11.851Z,98844.28
2023-01-15T13:20:02.363Z,98858.88
2023-01-15T13:23:19.100Z,98864.16
2023-01-15T13:26:32.150Z,98861.63
2023-01-15T13:29:29.150Z,98861.00
2023-01-15T13:32:23.721Z,98862.31
2023-01-15T13:35:36.064Z,98860.91
2023-01-15T13:38:26.126Z,98856.78
2023-01-15T13:41:53.029Z,98855.22
2023-01-15T13:44:44.635Z,98854.97
2023-01-15T13:47:34.417Z,98844.56
2023-01-15T13:50:31.187Z,98849.97
2023-01-15T13:53:27.864Z,98851.25
2023-01-15T13:56:24.851Z,98848.91
2023-01-15T13:59:45.581Z,98842.09
2023-01-15T14:02:38.275Z,98841.28
2023-01-15T14:05:26.201Z,98834.28
2023-01-15T14:08:16.666Z,98841.13
2023-01-15T14:11:02.830Z,98831.69
2023-01-15T14:13:55.080Z,98824.50
2023-01-15T14:17:21.669Z,98822.13
2023-01-15T14:20:35.027Z,98822.13
2023-01-15T14:23:32.556Z,98814.88
2023-01-15T14:26:26.003Z,98815.22
2023-01-15T14:29:50.432Z,98824.94
2023-01-15T14:32:57.288Z,98819.88
2023-01-15T14:35:46.571Z,98818.63
2023-01-15T14:38:33.356Z,98813.91
2023-01-15T14:41:26.669Z,98809.00
2023-01-15T14:44:11.597Z,98796.66
2023-01-15T14:47:03.718Z,98790.66
2023-01-15T14:50:00.932Z,98779.88
2023-01-15T14:52:46.647Z,98778.66
2023-01-15T14:55:32.273Z,98775.94
2023-01-15T14:58:31.051Z,98778.31
2023-01-15T15:01:51.749Z,98767.53
2023-01-15T15:04:42.846Z,98759.94
2023-01-15T15:07:35.237Z,98753.31
2023-01-15T15:10:33.293Z,98758.72
2023-01-15T15:13:46.555Z,98758.09
2023-01-15T15:16:36.285Z,98763.19
2023-01-15T15:19:31.388Z,98752.25
2023-01-15T15:22:19.038Z,98752.44
2023-01-15T15:25:10.231Z,98748.13
2023-01-15T15:28:10.587Z,98755.91
2023-01-15T15:30:59.761Z,98768.00
2023-01-15T15:33:45.062Z,98760.38
2023-01-15T15:36:32.534Z,98768.13
2023-01-15T15:39:29.222Z,98766.59
2023-01-15T15:42:45.625Z,98774.78
2023-01-15T15:45:49.747Z,98774.59
2023-01-15T15:48:41.576Z,98779.88
2023-01-15T15:51:44.279Z,98772.41
2023-01-15T15:54:30.276Z,98789.41
2023-01-15T15:57:19.626Z,98785.28
2023-01-15T16:00:05.097Z,98791.13
2023-01-15T16:02:51.492Z,98790.53
2023-01-15T16:05:37.033Z,98792.28
2023-01-15T16:08:21.748Z,98794.97
2023-01-15T16:11:11.964Z,98793.22
2023-01-15T16:13:58.802Z,98789.91
2023-01-15T16:16:45.477Z,98793.41
2023-01-15T16:19:30.756Z,98785.19
2023-01-15T16:22:17.482Z,98791.22
2023-01-15T16:25:02.984Z,98785.97
2023-01-15T16:27:48.292Z,98782.66
2023-01-15T16:30:33.305Z,98777.75
2023-01-15T16:33:18.827Z,98756.69
2023-01-15T16:36:05.740Z,98759.22
2023-01-15T16:38:52.232Z,98772.22
2023-01-15T16:41:41.770Z,98767.16
2023-01-15T16:44:50.056Z,98752.31
2023-01-15T16:47:36.121Z,98757.19
2023-01-15T16:50:23.852Z,98746.13
2023-01-15T16:53:28.185Z,98742.94
2023-01-15T16:56:34.672Z,98730.13
2023-01-15T16:59:29.621Z,98730.13
2023-01-15T17:02:19.678Z,98725.84
2023-01-15T17:05:16.958Z,98721.91
2023-01-15T17:08:01.869Z,98720.13
2023-01-15T17:11:01.706Z,98723.47
2023-01-15T17:13:46.784Z,98726.00
2023-01-15T17:16:31.639Z,98722.84
2023-01-15T17:19:16.757Z,98719.53
2023-01-15T17:22:01.828Z,98707.19
2023-01-15T17:24:49.651Z,98708.44
2023-01-15T17:27:34.250Z,98705.13
2023-01-15T17:30:20.292Z,98704.31
2023-01-15T17:33:07.353Z,98703.72
2023-01-15T17:35:53.545Z,98698.66
2023-01-15T17:38:38.949Z,98700.38
2023-01-15T17:41:24.354Z,98704.66
2023-01-15T17:44:09.849Z,98698.19
2023-01-15T17:46:54.910Z,98697.25
2023-01-15T17:49:39.865Z,98701.38
2023-01-15T17:52:24.838Z,98695.84
2023-01-15T17:55:32.763Z,98697.44
2023-01-15T17:58:36.278Z,98690.97
2023-01-15T18:01:42.364Z,98705.97
2023-01-15T18:04:59.451Z,98703.44
2023-01-15T18:07:45.035Z,98685.09
2023-01-15T18:10:30.638Z,98696.03
2023-01-15T18:13:15.678Z,98697.78
2023-01-15T18:16:00.345Z,98696.03
2023-01-15T18:18:45.574Z,98690.50
2023-01-15T18:21:30.597Z,98694.78
2023-01-15T18:24:16.585Z,98684.06
2023-01-15T18:27:01.732Z,98690.25
2023-01-15T18:29:46.574Z,98678.72
2023-01-15T18:32:32.869Z,98689.00
2023-01-15T18:35:17.931Z,98683.34
2023-01-15T18:38:03.034Z,98694.41
2023-01-15T18:40:48.215Z,98693.66
2023-01-15T18:43:51.775Z,98691.47
2023-01-15T18:46:46.727Z,98686.53
2023-01-15T18:49:31.648Z,98697.03
2023-01-15T18:52:35.296Z,98684.88
2023-01-15T18:55:30.915Z,98687.84
2023-01-15T18:58:15.856Z,98686.13
2023-01-15T19:01:10.000Z,98678.84
2023-01-15T19:03:57.949Z,98680.44
2023-01-15T19:06:42.585Z,98671.41
2023-01-15T19:09:27.354Z,98673.94
2023-01-15T19:12:13.078Z,98666.53
2023-01-15T19:15:16.564Z,98666.88
2023-01-15T19:18:20.526Z,98666.88
2023-01-15T19:21:06.585Z,98668.19
2023-01-15T19:23:51.713Z,98677.34
2023-01-15T19:26:39.453Z,98660.94
2023-01-15T19:29:24.183Z,98656.19
2023-01-15T19:32:09.533Z,98647.66
2023-01-15T19:34:54.193Z,98654.81
2023-01-15T19:37:39.356Z,98656.19
2023-01-15T19:40:24.509Z,98655.25
2023-01-15T19:43:28.259Z,98645.47
2023-01-15T19:46:31.804Z,98657.50
2023-01-15T19:49:38.201Z,98649.91
2023-01-15T19:52:35.096Z,98647.53
2023-01-15T19:55:22.144Z,98642.22
2023-01-15T19:58:09.656Z,98652.94
2023-01-15T20:00:54.794Z,98658.53
2023-01-15T20:03:39.461Z,98641.94
2023-01-15T20:06:24.223Z,98638.28
2023-01-15T20:09:09.054Z,98634.94
2023-01-15T20:12:12.091Z,98643.84
2023-01-15T20:14:57.392Z,98642.00
2023-01-15T20:17:42.627Z,98640.00
2023-01-15T20:20:27.484Z,98641.91
2023-01-15T20:23:13.230Z,98633.84
2023-01-15T20:26:06.432Z,98638.91
2023-01-15T20:28:51.347Z,98620.59
2023-01-15T20:31:36.012Z,98633.41
2023-01-15T20:34:21.282Z,98632.00
2023-01-15T20:37:06.468Z,98634.03
2023-01-15T20:39:52.097Z,98628.00
2023-01-15T20:42:55.315Z,98630.19
2023-01-15T20:45:40.911Z,98640.50
2023-01-15T20:48:44.270Z,98643.97
2023-01-15T20:51:29.064Z,98643.97
2023-01-15T20:54:14.166Z,98640.84
2023-01-15T20:56:59.056Z,98643.69
2023-01-15T20:59:43.860Z,98645.44
2023-01-15T21:02:28.511Z,98638.50
2023-01-15T21:05:14.411Z,98640.63
2023-01-15T21:07:59.111Z,98640.34
2023-01-15T21:10:44.130Z,98639.09
2023-01-15T21:13:30.710Z,98640.06
2023-01-15T21:16:16.020Z,98637.53
2023-01-15T21:19:03.708Z,98636.56
2023-01-15T21:21:48.878Z,98634.34
2023-01-15T21:24:33.611Z,98637.69
2023-01-15T21:27:18.294Z,98649.19
2023-01-15T21:30:05.550Z,98644.31
2023-01-15T21:32:50.457Z,98636.22
2023-01-15T21:35:37.615Z,98643.81
2023-01-15T21:38:22.265Z,98644.13
2023-01-15T21:41:12.727Z,98650.19
2023-01-15T21:44:15.764Z,98657.13
2023-01-15T21:47:06.846Z,98650.19
2023-01-15T21:49:51.971Z,98643.56
2023-01-15T21:52:36.823Z,98649.44
2023-01-15T21:55:21.756Z,98667.78
2023-01-15T21:58:06.681Z,98652.34
2023-01-15T22:00:51.278Z,98653.44
2023-01-15T22:03:36.839Z,98663.75
2023-01-15T22:06:22.275Z,98649.69
2023-01-15T22:09:06.835Z,98657.44
2023-01-15T22:11:52.029Z,98650.81
2023-01-15T22:14:37.086Z,98641.47
2023-01-15T22:17:22.410Z,98632.94
2023-01-15T22:20:07.803Z,98639.59
2023-01-15T22:22:52.779Z,98632.94
2023-01-15T22:25:42.163Z,98633.72
2023-01-15T22:28:26.815Z,98641.47
2023-01-15T22:31:12.071Z,98643.84
2023-01-15T22:33:58.209Z,98633.88
2023-01-15T22:36:43.025Z,98635.66
2023-01-15T22:39:28.971Z,98626.28
2023-01-15T22:42:30.585Z,98633.25
2023-01-15T22:45:15.470Z,98629.78
2023-01-15T22:48:00.710Z,98633.59
2023-01-15T22:50:45.343Z,98629.16
2023-01-15T22:53:30.103Z,98623.47
2023-01-15T22:56:15.449Z,98630.75
2023-01-15T22:59:00.052Z,98630.59
2023-01-15T23:01:45.167Z,98620.63
2023-01-15T23:04:30.310Z,98620.63
2023-01-15T23:07:15.560Z,98628.69
2023-01-15T23:09:59.953Z,98629.94
2023-01-15T23:12:44.601Z,98634.84
2023-01-15T23:15:29.490Z,98622.03
2023-01-15T23:18:14.382Z,98619.50
2023-01-15T23:21:08.467Z,98618.09
2023-01-15T23:23:57.832Z,98629.16
2023-01-15T23:26:42.618Z,98613.97
2023-01-15T23:29:27.883Z,98599.59
2023-01-15T23:32:12.706Z,98612.09
2023-01-15T23:34:57.592Z,98614.28
2023-01-15T23:37:42.644Z,98602.13
2023-01-15T23:40:27.125Z,98600.72
2023-01-15T23:43:32.375Z,98607.19
2023-01-15T23:46:32.330Z,98609.72
2023-01-15T23:49:18.262Z,98600.25
2023-01-15T23:52:03.696Z,98595.81
2023-01-15T23:54:48.601Z,98590.56
2023-01-15T23:57:35.012Z,98587.72
